createdAt,value
2019-04-01T00:02:20.247Z,60.70
2019-04-01T00:05:43.720Z,60.70
2019-04-01T00:08:48.118Z,60.70
2019-04-01T00:11:52.500Z,60.70
2019-04-01T00:14:56.951Z,60.70
2019-04-01T00:18:01.329Z,60.80
2019-04-01T00:21:05.666Z,60.90
2019-04-01T00:24:10.427Z,60.90
2019-04-01T00:27:14.764Z,61.10
2019-04-01T00:30:19.165Z,61.10
2019-04-01T00:33:23.551Z,61.00
2019-04-01T00:36:27.871Z,61.00
2019-04-01T00:39:32.168Z,61.10
2019-04-01T00:42:45.874Z,61.20
2019-04-01T00:45:51.039Z,61.20
2019-04-01T00:48:55.346Z,61.30
2019-04-01T00:51:59.686Z,61.40
2019-04-01T00:55:04.078Z,61.50
2019-04-01T00:58:08.844Z,61.50
2019-04-01T01:01:13.289Z,61.60
2019-04-01T01:04:17.668Z,61.60
2019-04-01T01:07:21.994Z,61.70
2019-04-01T01:10:27.815Z,61.70
2019-04-01T01:13:32.211Z,61.70
2019-04-01T01:16:36.606Z,61.80
2019-04-01T01:19:40.903Z,62.00
2019-04-01T01:22:45.227Z,62.00
2019-04-01T01:25:49.600Z,62.10
2019-04-01T01:28:54.366Z,62.10
2019-04-01T01:31:58.752Z,62.20
2019-04-01T01:35:03.448Z,62.30
2019-04-01T01:38:08.123Z,62.30
2019-04-01T01:41:12.912Z,62.30
2019-04-01T01:44:17.637Z,62.30
2019-04-01T01:47:21.952Z,62.30
2019-04-01T01:50:26.416Z,62.30
2019-04-01T01:53:31.105Z,62.40
2019-04-01T01:56:35.502Z,62.40
2019-04-01T01:59:40.221Z,62.40
2019-04-01T02:02:44.687Z,62.30
2019-04-01T02:05:48.987Z,62.50
2019-04-01T02:08:53.309Z,62.50
2019-04-01T02:11:57.990Z,62.50
2019-04-01T02:15:02.436Z,62.40
2019-04-01T02:18:07.227Z,62.40
2019-04-01T02:21:11.597Z,62.40
2019-04-01T02:24:16.822Z,62.50
2019-04-01T02:27:21.523Z,63.30
2019-04-01T02:30:25.813Z,62.60
2019-04-01T02:33:30.515Z,62.70
2019-04-01T02:36:36.210Z,62.60
2019-04-01T02:39:40.567Z,62.50
2019-04-01T02:42:45.308Z,62.90
2019-04-01T02:45:49.609Z,62.90
2019-04-01T02:48:53.985Z,63.10
2019-04-01T02:51:58.445Z,63.10
2019-04-01T02:55:06.565Z,63.20
2019-04-01T02:58:08.860Z,63.20
2019-04-01T03:01:13.370Z,63.10
2019-04-01T03:04:17.959Z,63.10
2019-04-01T03:07:22.369Z,62.80
2019-04-01T03:10:26.696Z,62.70
2019-04-01T03:13:31.542Z,62.70
2019-04-01T03:16:36.733Z,62.60
2019-04-01T03:19:41.054Z,62.40
2019-04-01T03:22:45.412Z,62.30
2019-04-01T03:25:52.691Z,62.30
2019-04-01T03:28:57.461Z,62.20
2019-04-01T03:32:01.859Z,62.30
2019-04-01T03:35:06.685Z,62.40
2019-04-01T03:38:11.069Z,62.30
2019-04-01T03:41:15.765Z,62.30
2019-04-01T03:44:20.093Z,62.30
2019-04-01T03:47:24.502Z,62.30
2019-04-01T03:50:28.935Z,62.40
2019-04-01T03:53:33.239Z,62.30
2019-04-01T03:56:37.473Z,62.30
2019-04-01T03:59:41.844Z,63.10
2019-04-01T04:02:46.183Z,62.40
2019-04-01T04:05:51.703Z,62.30
2019-04-01T04:08:56.107Z,62.30
2019-04-01T04:12:00.500Z,62.30
2019-04-01T04:15:06.679Z,62.40
2019-04-01T04:18:11.847Z,62.30
2019-04-01T04:21:16.425Z,62.20
2019-04-01T04:24:20.761Z,62.20
2019-04-01T04:27:26.638Z,62.30
2019-04-01T04:30:31.576Z,62.20
2019-04-01T04:33:35.988Z,62.20
2019-04-01T04:36:40.345Z,62.30
2019-04-01T04:39:45.080Z,62.10
2019-04-01T04:42:49.396Z,62.10
2019-04-01T04:45:54.162Z,62.10
2019-04-01T04:48:58.498Z,62.00
2019-04-01T04:52:04.861Z,61.90
2019-04-01T04:55:09.595Z,62.00
2019-04-01T04:58:13.979Z,61.90
2019-04-01T05:01:18.325Z,61.80
2019-04-01T05:04:22.705Z,62.00
2019-04-01T05:07:31.193Z,61.80
2019-04-01T05:10:34.207Z,61.90
2019-04-01T05:13:38.727Z,62.00
2019-04-01T05:16:43.156Z,61.90
2019-04-01T05:19:49.225Z,62.00
2019-04-01T05:22:55.320Z,62.00
2019-04-01T05:25:59.714Z,62.50
2019-04-01T05:29:08.789Z,63.50
2019-04-01T05:32:15.716Z,64.40
2019-04-01T05:35:20.397Z,65.00
2019-04-01T05:38:24.764Z,64.80
2019-04-01T05:41:29.131Z,64.20
2019-04-01T05:44:33.767Z,64.10
2019-04-01T05:47:42.573Z,63.10
2019-04-01T05:50:46.918Z,61.70
2019-04-01T05:53:51.422Z,61.50
2019-04-01T05:56:55.745Z,60.10
2019-04-01T06:00:01.267Z,59.70
2019-04-01T06:03:05.780Z,59.60
2019-04-01T06:06:10.052Z,59.50
2019-04-01T06:09:14.404Z,59.50
2019-04-01T06:12:18.783Z,59.70
2019-04-01T06:15:23.135Z,59.70
2019-04-01T06:18:27.867Z,59.80
2019-04-01T06:21:32.597Z,60.00
2019-04-01T06:24:37.363Z,59.90
2019-04-01T06:27:42.081Z,60.20
2019-04-01T06:30:49.735Z,60.40
2019-04-01T06:33:54.469Z,59.90
2019-04-01T06:36:58.787Z,60.40
2019-04-01T06:40:03.113Z,60.10
2019-04-01T06:43:08.696Z,60.20
2019-04-01T06:46:13.477Z,60.30
2019-04-01T06:49:20.213Z,60.40
2019-04-01T06:52:23.758Z,60.20
2019-04-01T06:55:28.262Z,59.90
2019-04-01T06:58:32.692Z,59.50
2019-04-01T07:01:37.192Z,59.20
2019-04-01T07:04:41.597Z,58.90
2019-04-01T07:07:45.926Z,59.10
2019-04-01T07:10:50.662Z,60.40
2019-04-01T07:13:55.263Z,60.80
2019-04-01T07:16:59.738Z,61.80
2019-04-01T07:20:04.618Z,61.80
2019-04-01T07:23:11.124Z,61.00
2019-04-01T07:26:15.431Z,60.90
2019-04-01T07:29:19.854Z,59.50
2019-04-01T07:32:24.583Z,59.10
2019-04-01T07:35:29.048Z,58.70
2019-04-01T07:38:33.366Z,58.70
2019-04-01T07:41:37.675Z,57.30
2019-04-01T07:44:42.184Z,57.00
2019-04-01T07:47:47.190Z,56.60
2019-04-01T07:50:52.172Z,55.80
2019-04-01T07:53:56.608Z,55.70
2019-04-01T07:57:01.982Z,55.80
2019-04-01T08:00:06.797Z,54.70
2019-04-01T08:03:11.502Z,54.60
2019-04-01T08:06:15.832Z,54.00
2019-04-01T08:09:20.537Z,52.60
2019-04-01T08:12:27.855Z,52.30
2019-04-01T08:15:32.333Z,52.60
2019-04-01T08:18:37.001Z,51.60
2019-04-01T08:21:41.458Z,51.90
2019-04-01T08:24:52.319Z,51.40
2019-04-01T08:27:57.217Z,50.60
2019-04-01T08:31:03.601Z,49.40
2019-04-01T08:34:09.442Z,49.20
2019-04-01T08:37:13.826Z,50.00
2019-04-01T08:40:18.167Z,49.30
2019-04-01T08:43:22.448Z,48.20
2019-04-01T08:46:26.793Z,47.20
2019-04-01T08:49:31.475Z,46.70
2019-04-01T08:52:35.826Z,45.60
2019-04-01T08:55:40.419Z,45.90
2019-04-01T08:58:44.969Z,45.80
2019-04-01T09:01:49.715Z,45.70
2019-04-01T09:04:54.083Z,45.00
2019-04-01T09:07:59.577Z,45.50
2019-04-01T09:11:04.020Z,45.30
2019-04-01T09:14:08.913Z,45.10
2019-04-01T09:17:13.553Z,44.10
2019-04-01T09:20:18.030Z,44.70
2019-04-01T09:23:24.815Z,44.40
2019-04-01T09:26:29.539Z,43.70
2019-04-01T09:29:34.082Z,43.80
2019-04-01T09:32:38.650Z,44.60
2019-04-01T09:35:43.059Z,43.00
2019-04-01T09:38:47.773Z,43.90
2019-04-01T09:41:52.481Z,43.70
2019-04-01T09:44:58.881Z,42.40
2019-04-01T09:48:03.278Z,42.40
2019-04-01T09:51:07.719Z,40.20
2019-04-01T09:54:14.222Z,40.60
2019-04-01T09:57:19.154Z,42.20
2019-04-01T10:00:23.671Z,41.70
2019-04-01T10:03:28.436Z,39.40
2019-04-01T10:06:33.422Z,40.90
2019-04-01T10:09:37.805Z,41.40
2019-04-01T10:12:42.705Z,40.90
2019-04-01T10:15:47.477Z,38.20
2019-04-01T10:18:52.138Z,37.80
2019-04-01T10:21:56.477Z,37.70
2019-04-01T10:25:00.771Z,37.90
2019-04-01T10:28:05.616Z,39.00
2019-04-01T10:31:10.237Z,39.40
2019-04-01T10:34:20.360Z,38.90
2019-04-01T10:37:26.136Z,39.40
2019-04-01T10:40:33.558Z,39.70
2019-04-01T10:43:38.339Z,40.10
2019-04-01T10:46:45.991Z,40.30
2019-04-01T10:49:50.669Z,39.20
2019-04-01T10:52:55.089Z,39.00
2019-04-01T10:55:59.701Z,39.30
2019-04-01T10:59:04.703Z,39.70
2019-04-01T11:02:12.509Z,39.70
2019-04-01T11:05:18.290Z,39.00
2019-04-01T11:08:22.726Z,40.20
2019-04-01T11:11:27.321Z,39.80
2019-04-01T11:14:32.071Z,38.80
2019-04-01T11:17:36.414Z,38.10
2019-04-01T11:20:40.874Z,39.30
2019-04-01T11:23:45.237Z,39.00
2019-04-01T11:26:49.560Z,38.80
2019-04-01T11:29:53.965Z,38.60
2019-04-01T11:32:58.209Z,38.60
2019-04-01T11:36:02.630Z,37.20
2019-04-01T11:39:08.038Z,38.50
2019-04-01T11:42:12.343Z,36.60
2019-04-01T11:45:16.854Z,37.90
2019-04-01T11:48:21.331Z,38.30
2019-04-01T11:51:32.588Z,39.00
2019-04-01T11:54:31.780Z,38.90
2019-04-01T11:57:36.183Z,37.00
2019-04-01T12:00:40.494Z,34.80
2019-04-01T12:03:44.925Z,36.10
2019-04-01T12:06:49.294Z,36.50
2019-04-01T12:09:56.098Z,36.90
2019-04-01T12:13:00.499Z,36.60
2019-04-01T12:16:04.815Z,36.90
2019-04-01T12:19:09.176Z,35.20
2019-04-01T12:22:13.537Z,36.10
2019-04-01T12:25:17.855Z,34.90
2019-04-01T12:28:22.181Z,35.30
2019-04-01T12:31:26.631Z,35.50
2019-04-01T12:34:31.312Z,35.80
2019-04-01T12:37:35.676Z,34.50
2019-04-01T12:40:40.088Z,35.40
2019-04-01T12:43:44.853Z,34.80
2019-04-01T12:46:49.644Z,36.10
2019-04-01T12:49:54.397Z,35.40
2019-04-01T12:52:58.804Z,35.50
2019-04-01T12:56:03.173Z,36.00
2019-04-01T12:59:07.501Z,34.60
2019-04-01T13:02:11.843Z,35.30
2019-04-01T13:05:16.524Z,34.90
2019-04-01T13:08:21.235Z,36.00
2019-04-01T13:11:25.518Z,35.80
2019-04-01T13:14:29.961Z,36.30
2019-04-01T13:17:34.304Z,36.10
2019-04-01T13:20:39.053Z,36.90
2019-04-01T13:23:43.468Z,36.10
2019-04-01T13:26:50.871Z,35.10
2019-04-01T13:29:55.213Z,35.90
2019-04-01T13:32:59.588Z,35.50
2019-04-01T13:36:07.659Z,36.60
2019-04-01T13:39:10.336Z,35.70
2019-04-01T13:42:15.153Z,34.80
2019-04-01T13:45:20.558Z,35.00
2019-04-01T13:48:25.862Z,34.80
2019-04-01T13:51:30.322Z,35.70
2019-04-01T13:54:34.955Z,36.60
2019-04-01T13:57:39.284Z,37.70
2019-04-01T14:00:43.625Z,37.40
2019-04-01T14:03:47.958Z,37.60
2019-04-01T14:06:52.503Z,37.70
2019-04-01T14:09:56.928Z,37.50
2019-04-01T14:13:03.556Z,37.60
2019-04-01T14:16:09.162Z,37.50
2019-04-01T14:19:13.780Z,38.00
2019-04-01T14:22:18.110Z,38.60
2019-04-01T14:25:22.819Z,38.60
2019-04-01T14:28:27.872Z,39.00
2019-04-01T14:31:32.172Z,39.30
2019-04-01T14:34:36.541Z,39.00
2019-04-01T14:37:41.346Z,39.00
2019-04-01T14:40:46.078Z,38.70
2019-04-01T14:43:50.442Z,38.60
2019-04-01T14:46:55.200Z,38.60
2019-04-01T14:49:59.615Z,38.90
2019-04-01T14:53:04.013Z,38.80
2019-04-01T14:56:08.293Z,39.30
2019-04-01T14:59:12.610Z,38.20
2019-04-01T15:02:17.011Z,38.70
2019-04-01T15:05:21.862Z,38.10
2019-04-01T15:08:26.518Z,38.80
2019-04-01T15:11:30.895Z,38.50
2019-04-01T15:14:35.220Z,38.70
2019-04-01T15:17:40.018Z,38.80
2019-04-01T15:20:44.404Z,38.80
2019-04-01T15:23:49.074Z,38.70
2019-04-01T15:26:53.390Z,38.70
2019-04-01T15:29:58.229Z,38.80
2019-04-01T15:33:02.616Z,38.80
2019-04-01T15:36:07.211Z,39.00
2019-04-01T15:39:13.710Z,39.10
2019-04-01T15:42:18.014Z,39.20
2019-04-01T15:45:22.350Z,38.90
2019-04-01T15:48:26.650Z,39.30
2019-04-01T15:51:30.989Z,39.30
2019-04-01T15:54:35.429Z,39.50
2019-04-01T15:57:40.202Z,39.90
2019-04-01T16:00:44.603Z,39.90
2019-04-01T16:03:49.351Z,39.90
2019-04-01T16:06:53.866Z,39.90
2019-04-01T16:09:58.201Z,39.90
2019-04-01T16:13:02.525Z,40.10
2019-04-01T16:16:07.219Z,40.40
2019-04-01T16:19:12.450Z,40.00
2019-04-01T16:22:17.194Z,40.40
2019-04-01T16:25:21.572Z,40.50
2019-04-01T16:28:25.899Z,40.30
2019-04-01T16:31:30.177Z,40.60
2019-04-01T16:34:34.858Z,40.60
2019-04-01T16:37:41.833Z,40.80
2019-04-01T16:40:47.061Z,40.90
2019-04-01T16:43:52.538Z,40.80
2019-04-01T16:46:56.871Z,40.60
2019-04-01T16:50:01.534Z,40.70
2019-04-01T16:53:06.618Z,41.60
2019-04-01T16:56:12.983Z,41.10
2019-04-01T16:59:17.282Z,41.30
2019-04-01T17:02:22.051Z,41.50
2019-04-01T17:05:32.857Z,41.50
2019-04-01T17:08:39.093Z,41.60
2019-04-01T17:11:43.966Z,41.70
2019-04-01T17:14:48.289Z,41.60
2019-04-01T17:17:52.805Z,41.80
2019-04-01T17:20:57.202Z,41.90
2019-04-01T17:24:01.922Z,42.00
2019-04-01T17:27:11.298Z,42.10
2019-04-01T17:30:15.957Z,42.30
2019-04-01T17:33:20.358Z,42.40
2019-04-01T17:36:24.676Z,42.60
2019-04-01T17:39:29.071Z,42.90
2019-04-01T17:42:33.688Z,43.10
2019-04-01T17:45:40.313Z,43.30
2019-04-01T17:48:45.060Z,43.50
2019-04-01T17:51:50.179Z,43.70
2019-04-01T17:54:54.566Z,43.80
2019-04-01T17:58:00.323Z,44.00
2019-04-01T18:01:04.649Z,44.10
2019-04-01T18:04:09.316Z,44.10
2019-04-01T18:07:13.962Z,43.80
2019-04-01T18:10:18.705Z,43.90
2019-04-01T18:13:23.099Z,43.90
2019-04-01T18:16:31.105Z,43.70
2019-04-01T18:19:33.888Z,43.80
2019-04-01T18:22:38.220Z,43.70
2019-04-01T18:25:42.629Z,43.60
2019-04-01T18:28:46.940Z,43.50
2019-04-01T18:31:52.924Z,43.40
2019-04-01T18:34:57.871Z,43.50
2019-04-01T18:38:03.472Z,43.60
2019-04-01T18:41:08.509Z,43.70
2019-04-01T18:44:18.280Z,43.60
2019-04-01T18:47:21.803Z,43.50
2019-04-01T18:50:26.477Z,43.40
2019-04-01T18:53:32.757Z,43.40
2019-04-01T18:56:38.168Z,43.20
2019-04-01T18:59:43.074Z,42.80
2019-04-01T19:02:48.640Z,43.10
2019-04-01T19:05:53.753Z,43.20
2019-04-01T19:09:08.735Z,43.30
2019-04-01T19:12:04.840Z,43.40
2019-04-01T19:15:10.197Z,43.40
2019-04-01T19:18:15.000Z,43.20
2019-04-01T19:21:19.255Z,43.30
2019-04-01T19:24:23.668Z,43.30
2019-04-01T19:27:27.992Z,43.20
2019-04-01T19:30:32.414Z,43.30
2019-04-01T19:33:38.137Z,42.60
2019-04-01T19:36:44.874Z,42.60
2019-04-01T19:39:49.317Z,42.60
2019-04-01T19:42:53.640Z,42.90
2019-04-01T19:45:58.297Z,42.70
2019-04-01T19:49:04.960Z,42.50
2019-04-01T19:52:09.887Z,42.20
2019-04-01T19:55:14.391Z,41.90
2019-04-01T19:58:18.746Z,41.40
2019-04-01T20:01:32.430Z,41.60
2019-04-01T20:04:37.547Z,41.80
2019-04-01T20:07:42.051Z,41.90
2019-04-01T20:10:46.694Z,42.00
2019-04-01T20:13:54.733Z,42.10
2019-04-01T20:16:58.251Z,42.10
2019-04-01T20:20:03.453Z,41.90
2019-04-01T20:23:07.797Z,41.80
2019-04-01T20:26:13.412Z,41.80
2019-04-01T20:29:18.080Z,42.00
2019-04-01T20:32:22.753Z,42.10
2019-04-01T20:35:28.349Z,42.20
2019-04-01T20:38:33.464Z,42.30
2019-04-01T20:41:37.939Z,42.50
2019-04-01T20:44:42.594Z,42.30
2019-04-01T20:47:50.045Z,42.50
2019-04-01T20:50:55.037Z,42.60
2019-04-01T20:53:58.994Z,42.60
2019-04-01T20:57:05.213Z,42.80
2019-04-01T21:00:10.687Z,42.70
2019-04-01T21:03:14.997Z,42.60
2019-04-01T21:06:19.611Z,42.70
2019-04-01T21:09:24.359Z,42.70
2019-04-01T21:12:28.812Z,42.50
2019-04-01T21:15:33.416Z,42.60
2019-04-01T21:18:37.756Z,42.60
2019-04-01T21:21:42.076Z,42.40
2019-04-01T21:24:46.810Z,42.20
2019-04-01T21:27:52.080Z,42.30
2019-04-01T21:30:59.425Z,42.40
2019-04-01T21:34:03.371Z,42.20
2019-04-01T21:37:07.713Z,42.40
2019-04-01T21:40:12.531Z,42.20
2019-04-01T21:43:16.839Z,42.40
2019-04-01T21:46:21.825Z,42.80
2019-04-01T21:49:26.101Z,42.50
2019-04-01T21:52:31.213Z,42.00
2019-04-01T21:55:35.578Z,42.40
2019-04-01T21:58:39.857Z,42.50
2019-04-01T22:01:46.106Z,42.40
2019-04-01T22:04:50.590Z,42.40
2019-04-01T22:07:54.989Z,42.50
2019-04-01T22:11:02.479Z,42.50
2019-04-01T22:14:06.790Z,42.50
2019-04-01T22:17:11.214Z,42.60
2019-04-01T22:20:15.515Z,42.40
2019-04-01T22:23:19.815Z,42.40
2019-04-01T22:26:24.587Z,42.50
2019-04-01T22:29:28.931Z,42.50
2019-04-01T22:32:33.560Z,42.60
2019-04-01T22:35:39.193Z,42.50
2019-04-01T22:38:44.481Z,42.40
2019-04-01T22:41:48.832Z,42.60
2019-04-01T22:44:53.531Z,42.70
2019-04-01T22:47:57.796Z,42.60
2019-04-01T22:51:02.850Z,42.80
2019-04-01T22:54:07.237Z,42.80
2019-04-01T22:57:11.886Z,43.00
2019-04-01T23:00:16.483Z,42.50
2019-04-01T23:03:22.566Z,43.00
2019-04-01T23:06:27.019Z,42.90
2019-04-01T23:09:31.768Z,43.00
2019-04-01T23:12:36.419Z,42.80
2019-04-01T23:15:41.039Z,43.10
2019-04-01T23:18:45.701Z,43.20
2019-04-01T23:21:50.626Z,43.10
2019-04-01T23:24:55.091Z,43.20
2019-04-01T23:27:59.491Z,43.20
2019-04-01T23:31:03.795Z,43.10
2019-04-01T23:34:08.892Z,42.80
2019-04-01T23:37:13.651Z,43.00
2019-04-01T23:40:18.054Z,43.00
2019-04-01T23:43:22.319Z,42.70
2019-04-01T23:46:27.233Z,42.70
2019-04-01T23:49:31.643Z,42.40
2019-04-01T23:52:36.112Z,42.70
2019-04-01T23:55:40.412Z,42.70
2019-04-01T23:58:44.733Z,42.80
